createdAt,value
2023-04-20T00:00:10.000Z,83.10
2023-04-20T00:02:38.316Z,83.30
2023-04-20T00:05:07.346Z,84.00
2023-04-20T00:07:34.042Z,84.10
2023-04-20T00:10:00.945Z,83.90
2023-04-20T00:12:27.630Z,85.00
2023-04-20T00:14:54.299Z,86.00
2023-04-20T00:17:21.123Z,86.90
2023-04-20T00:19:48.200Z,86.80
2023-04-20T00:22:14.906Z,87.60
2023-04-20T00:24:41.565Z,88.40
2023-04-20T00:27:08.213Z,88.50
2023-04-20T00:29:34.880Z,88.40
2023-04-20T00:32:01.497Z,87.90
2023-04-20T00:34:28.139Z,88.40
2023-04-20T00:36:54.938Z,88.60
2023-04-20T00:39:21.658Z,89.10
2023-04-20T00:41:48.313Z,89.50
2023-04-20T00:44:14.970Z,89.60
2023-04-20T00:46:41.877Z,89.80
2023-04-20T00:49:09.437Z,90.10
2023-04-20T00:51:36.789Z,90.00
2023-04-20T00:54:03.631Z,90.20
2023-04-20T00:56:30.459Z,90.40
2023-04-20T00:58:57.128Z,90.20
2023-04-20T01:01:24.393Z,90.10
2023-04-20T01:03:51.177Z,90.40
2023-04-20T01:06:18.083Z,90.50
2023-04-20T01:08:51.557Z,90.70
2023-04-20T01:11:18.504Z,90.60
2023-04-20T01:13:45.462Z,90.30
2023-04-20T01:16:12.609Z,90.40
2023-04-20T01:18:51.127Z,90.20
2023-04-20T01:21:22.115Z,90.70
2023-04-20T01:23:49.200Z,90.80
2023-04-20T01:26:18.315Z,91.10
2023-04-20T01:28:46.110Z,91.00
2023-04-20T01:31:13.790Z,91.00
2023-04-20T01:33:40.788Z,90.90
2023-04-20T01:36:09.120Z,91.00
2023-04-20T01:38:36.541Z,91.10
2023-04-20T01:41:08.465Z,91.30
2023-04-20T01:43:36.826Z,91.50
2023-04-20T01:46:03.933Z,91.70
2023-04-20T01:48:30.917Z,91.60
2023-04-20T01:50:57.637Z,91.60
2023-04-20T01:53:25.326Z,91.60
2023-04-20T01:55:52.026Z,91.60
2023-04-20T01:58:18.703Z,91.70
2023-04-20T02:00:45.499Z,91.80
2023-04-20T02:03:12.526Z,91.70
2023-04-20T02:05:39.315Z,91.90
2023-04-20T02:08:06.114Z,91.80
2023-04-20T02:10:32.814Z,91.80
2023-04-20T02:12:59.486Z,91.90
2023-04-20T02:15:26.214Z,92.00
2023-04-20T02:17:52.950Z,92.10
2023-04-20T02:20:19.964Z,92.10
2023-04-20T02:22:46.724Z,92.30
2023-04-20T02:25:14.279Z,92.60
2023-04-20T02:27:41.047Z,92.80
2023-04-20T02:30:08.347Z,92.70
2023-04-20T02:32:35.151Z,92.70
2023-04-20T02:35:02.221Z,92.60
2023-04-20T02:37:29.021Z,92.50
2023-04-20T02:39:55.675Z,92.60
2023-04-20T02:42:22.350Z,92.30
2023-04-20T02:44:49.053Z,92.80
2023-04-20T02:47:15.648Z,92.80
2023-04-20T02:49:42.264Z,92.80
2023-04-20T02:52:09.082Z,92.80
2023-04-20T02:54:35.817Z,93.00
2023-04-20T02:57:03.444Z,93.20
2023-04-20T02:59:30.063Z,93.10
2023-04-20T03:01:59.555Z,93.60
2023-04-20T03:04:29.156Z,93.50
2023-04-20T03:06:56.859Z,93.50
2023-04-20T03:09:23.801Z,93.60
2023-04-20T03:11:50.576Z,93.90
2023-04-20T03:14:17.291Z,93.60
2023-04-20T03:16:44.145Z,93.60
2023-04-20T03:19:11.083Z,93.60
2023-04-20T03:21:37.800Z,93.70
2023-04-20T03:24:07.075Z,93.70
2023-04-20T03:26:33.720Z,94.20
2023-04-20T03:29:00.496Z,94.20
2023-04-20T03:31:27.148Z,94.30
2023-04-20T03:33:53.836Z,94.30
2023-04-20T03:36:20.486Z,94.20
2023-04-20T03:38:47.131Z,94.70
2023-04-20T03:41:14.727Z,95.00
2023-04-20T03:43:41.742Z,94.80
2023-04-20T03:46:08.463Z,94.70
2023-04-20T03:48:35.464Z,94.70
2023-04-20T03:51:02.163Z,94.60
2023-04-20T03:53:29.184Z,94.50
2023-04-20T03:55:56.091Z,94.60
2023-04-20T03:58:22.747Z,94.90
2023-04-20T04:00:49.444Z,95.30
2023-04-20T04:03:16.300Z,95.60
2023-04-20T04:05:43.031Z,95.20
2023-04-20T04:08:09.705Z,95.10
2023-04-20T04:10:36.308Z,95.40
2023-04-20T04:13:03.177Z,95.20
2023-04-20T04:15:29.876Z,95.10
2023-04-20T04:17:56.560Z,95.00
2023-04-20T04:20:23.316Z,95.20
2023-04-20T04:22:49.988Z,95.30
2023-04-20T04:25:17.429Z,95.20
2023-04-20T04:27:46.193Z,95.40
2023-04-20T04:30:13.629Z,95.60
2023-04-20T04:32:40.968Z,95.80
2023-04-20T04:35:08.090Z,95.60
2023-04-20T04:37:34.754Z,95.80
2023-04-20T04:40:03.779Z,95.90
2023-04-20T04:42:31.086Z,95.80
2023-04-20T04:44:58.562Z,95.90
2023-04-20T04:47:25.435Z,96.10
2023-04-20T04:49:52.184Z,96.00
2023-04-20T04:52:18.864Z,96.00
2023-04-20T04:54:45.796Z,96.10
2023-04-20T04:57:12.673Z,96.40
2023-04-20T04:59:39.406Z,96.30
2023-04-20T05:02:06.283Z,96.50
2023-04-20T05:04:33.100Z,96.70
2023-04-20T05:06:59.777Z,97.00
2023-04-20T05:09:26.574Z,96.90
2023-04-20T05:11:53.316Z,96.80
2023-04-20T05:14:19.946Z,96.70
2023-04-20T05:16:46.635Z,97.10
2023-04-20T05:19:13.461Z,97.10
2023-04-20T05:21:40.524Z,96.90
2023-04-20T05:24:07.321Z,96.90
2023-04-20T05:26:34.099Z,96.80
2023-04-20T05:29:01.601Z,97.20
2023-04-20T05:31:28.966Z,97.60
2023-04-20T05:33:55.675Z,97.70
2023-04-20T05:36:22.330Z,97.90
2023-04-20T05:38:48.950Z,98.30
2023-04-20T05:41:15.630Z,97.90
2023-04-20T05:43:42.297Z,98.00
2023-04-20T05:46:09.016Z,98.70
2023-04-20T05:48:35.736Z,99.00
2023-04-20T05:51:02.526Z,98.10
2023-04-20T05:53:29.181Z,97.10
2023-04-20T05:55:55.901Z,96.10
2023-04-20T05:58:22.631Z,96.20
2023-04-20T06:00:49.338Z,97.60
2023-04-20T06:03:19.017Z,97.10
2023-04-20T06:05:46.006Z,97.40
2023-04-20T06:08:12.676Z,97.00
2023-04-20T06:10:39.414Z,96.00
2023-04-20T06:13:06.206Z,96.20
2023-04-20T06:15:32.957Z,95.80
2023-04-20T06:18:01.145Z,95.40
2023-04-20T06:20:28.014Z,95.10
2023-04-20T06:22:54.825Z,94.50
2023-04-20T06:25:21.477Z,94.70
2023-04-20T06:27:49.688Z,94.20
2023-04-20T06:30:18.002Z,94.60
2023-04-20T06:32:44.664Z,93.90
2023-04-20T06:35:11.415Z,93.20
2023-04-20T06:37:38.718Z,91.80
2023-04-20T06:40:09.039Z,91.50
2023-04-20T06:42:37.105Z,91.30
2023-04-20T06:45:07.883Z,91.10
2023-04-20T06:47:34.878Z,90.60
2023-04-20T06:50:02.573Z,91.30
2023-04-20T06:52:30.529Z,90.90
2023-04-20T06:54:59.385Z,90.80
2023-04-20T06:57:26.295Z,90.20
2023-04-20T06:59:52.917Z,90.00
2023-04-20T07:02:19.731Z,89.90
2023-04-20T07:04:46.455Z,90.40
2023-04-20T07:07:13.162Z,90.00
2023-04-20T07:09:39.813Z,90.50
2023-04-20T07:12:06.549Z,91.20
2023-04-20T07:14:33.165Z,91.30
2023-04-20T07:16:59.894Z,91.30
2023-04-20T07:19:26.543Z,91.70
2023-04-20T07:21:53.228Z,91.70
2023-04-20T07:24:19.913Z,91.60
2023-04-20T07:26:46.671Z,91.50
2023-04-20T07:29:13.422Z,91.80
2023-04-20T07:31:40.193Z,92.40
2023-04-20T07:34:07.174Z,92.50
2023-04-20T07:36:34.173Z,93.00
2023-04-20T07:39:00.858Z,93.10
2023-04-20T07:41:27.527Z,92.50
2023-04-20T07:43:54.200Z,92.60
2023-04-20T07:46:22.321Z,92.80
2023-04-20T07:48:49.220Z,92.90
2023-04-20T07:51:15.929Z,93.30
2023-04-20T07:53:42.808Z,93.10
2023-04-20T07:56:09.640Z,93.30
2023-04-20T07:58:38.692Z,93.40
2023-04-20T08:01:06.117Z,93.00
2023-04-20T08:03:33.619Z,93.20
2023-04-20T08:06:00.715Z,93.50
2023-04-20T08:08:27.665Z,93.70
2023-04-20T08:10:58.005Z,93.90
2023-04-20T08:13:25.089Z,94.00
2023-04-20T08:15:51.936Z,94.40
2023-04-20T08:18:20.045Z,94.90
2023-04-20T08:20:47.949Z,95.20
2023-04-20T08:23:14.755Z,95.60
2023-04-20T08:25:41.512Z,95.50
2023-04-20T08:28:11.934Z,95.70
2023-04-20T08:30:42.186Z,97.20
2023-04-20T08:33:11.179Z,97.70
2023-04-20T08:35:38.013Z,97.40
2023-04-20T08:38:04.966Z,97.60
2023-04-20T08:40:32.161Z,97.40
2023-04-20T08:43:01.850Z,98.30
2023-04-20T08:45:30.184Z,98.80
2023-04-20T08:47:59.668Z,98.50
2023-04-20T08:50:26.721Z,99.40
2023-04-20T08:52:53.438Z,99.60
2023-04-20T08:55:20.507Z,99.90
2023-04-20T08:57:49.981Z,99.90
2023-04-20T09:00:17.538Z,99.40
2023-04-20T09:02:52.523Z,99.90
2023-04-20T09:05:29.737Z,99.90
2023-04-20T09:07:59.468Z,99.80
2023-04-20T09:10:27.554Z,99.60
2023-04-20T09:12:54.268Z,99.90
2023-04-20T09:15:25.977Z,99.90
2023-04-20T09:17:52.797Z,99.80
2023-04-20T09:20:33.246Z,99.90
2023-04-20T09:23:21.353Z,99.90
2023-04-20T09:25:52.536Z,99.50
2023-04-20T09:28:19.907Z,99.20
2023-04-20T09:30:48.823Z,98.50
2023-04-20T09:33:15.956Z,99.60
2023-04-20T09:35:44.177Z,99.10
2023-04-20T09:38:14.983Z,99.20
2023-04-20T09:40:41.776Z,99.10
2023-04-20T09:43:19.058Z,99.60
2023-04-20T09:45:46.215Z,99.70
2023-04-20T09:48:18.943Z,99.00
2023-04-20T09:50:49.995Z,99.90
2023-04-20T09:53:18.671Z,99.20
2023-04-20T09:55:50.227Z,98.90
2023-04-20T09:58:21.312Z,99.10
2023-04-20T10:00:48.983Z,99.50
2023-04-20T10:03:20.461Z,99.80
2023-04-20T10:05:47.854Z,99.90
2023-04-20T10:08:14.874Z,99.90
2023-04-20T10:10:50.202Z,99.90
2023-04-20T10:13:19.492Z,99.90
2023-04-20T10:15:46.730Z,99.90
2023-04-20T10:18:24.572Z,99.90
2023-04-20T10:21:03.669Z,99.90
2023-04-20T10:23:30.542Z,99.90
2023-04-20T10:26:02.606Z,99.90
2023-04-20T10:28:39.855Z,99.90
2023-04-20T10:31:08.672Z,99.90
2023-04-20T10:33:35.469Z,99.90
2023-04-20T10:36:02.191Z,99.90
2023-04-20T10:38:35.978Z,99.90
2023-04-20T10:41:13.026Z,99.90
2023-04-20T10:43:43.028Z,99.90
2023-04-20T10:46:21.639Z,99.90
2023-04-20T10:49:01.239Z,99.90
2023-04-20T10:51:28.653Z,99.90
2023-04-20T10:54:05.159Z,99.90
2023-04-20T10:56:45.012Z,99.90
2023-04-20T10:59:19.924Z,99.90
2023-04-20T11:01:48.075Z,99.90
2023-04-20T11:04:18.927Z,99.90
2023-04-20T11:06:49.268Z,99.90
2023-04-20T11:09:26.732Z,99.90
2023-04-20T11:12:00.115Z,99.90
2023-04-20T11:14:26.934Z,99.90
2023-04-20T11:16:53.987Z,99.90
2023-04-20T11:19:34.716Z,99.90
2023-04-20T11:22:02.444Z,99.90
2023-04-20T11:24:31.466Z,99.90
2023-04-20T11:26:58.810Z,99.90
2023-04-20T11:29:35.649Z,99.90
2023-04-20T11:32:06.280Z,99.90
2023-04-20T11:34:34.758Z,99.90
2023-04-20T11:37:06.489Z,99.90
2023-04-20T11:39:33.784Z,99.90
2023-04-20T11:42:01.768Z,99.90
2023-04-20T11:44:28.731Z,99.90
2023-04-20T11:46:59.559Z,99.90
2023-04-20T11:49:28.066Z,99.90
2023-04-20T11:51:55.219Z,99.90
2023-04-20T11:54:22.223Z,99.90
2023-04-20T11:56:48.987Z,99.90
2023-04-20T11:59:20.189Z,99.90
2023-04-20T12:01:47.892Z,99.90
2023-04-20T12:04:15.794Z,99.90
2023-04-20T12:06:42.852Z,99.90
2023-04-20T12:09:09.541Z,99.90
2023-04-20T12:11:36.255Z,99.90
2023-04-20T12:14:04.536Z,99.90
2023-04-20T12:16:31.614Z,99.90
2023-04-20T12:18:58.419Z,99.90
2023-04-20T12:21:25.456Z,99.90
2023-04-20T12:23:54.084Z,99.90
2023-04-20T12:26:22.574Z,99.90
2023-04-20T12:28:50.626Z,99.90
2023-04-20T12:31:17.409Z,99.90
2023-04-20T12:33:44.591Z,99.90
2023-04-20T12:36:11.582Z,99.90
2023-04-20T12:38:38.364Z,99.90
2023-04-20T12:41:05.310Z,99.90
2023-04-20T12:43:32.542Z,99.90
2023-04-20T12:45:59.225Z,99.90
2023-04-20T12:48:26.124Z,99.90
2023-04-20T12:50:52.852Z,99.90
2023-04-20T12:53:19.961Z,99.90
2023-04-20T12:55:47.419Z,99.90
2023-04-20T12:58:16.127Z,99.90
2023-04-20T13:00:43.332Z,99.90
2023-04-20T13:03:10.247Z,99.90
2023-04-20T13:05:37.124Z,99.90
2023-04-20T13:08:05.304Z,99.90
2023-04-20T13:10:32.015Z,99.90
2023-04-20T13:12:59.738Z,99.90
2023-04-20T13:15:38.052Z,99.90
2023-04-20T13:18:06.103Z,99.90
2023-04-20T13:20:32.982Z,99.90
2023-04-20T13:23:01.300Z,99.90
2023-04-20T13:25:32.561Z,99.90
2023-04-20T13:28:00.929Z,99.90
2023-04-20T13:30:27.976Z,99.90
2023-04-20T13:32:54.870Z,99.90
2023-04-20T13:35:21.984Z,99.90
2023-04-20T13:37:48.986Z,99.90
2023-04-20T13:40:16.025Z,99.90
2023-04-20T13:42:42.723Z,99.90
2023-04-20T13:45:10.367Z,99.90
2023-04-20T13:47:41.972Z,99.90
2023-04-20T13:50:09.403Z,99.90
2023-04-20T13:52:39.434Z,99.90
2023-04-20T13:55:06.549Z,99.90
2023-04-20T13:57:33.280Z,99.90
2023-04-20T14:00:01.079Z,99.90
2023-04-20T14:02:28.778Z,99.90
2023-04-20T14:04:56.405Z,99.90
2023-04-20T14:07:23.296Z,99.90
2023-04-20T14:09:50.907Z,99.90
2023-04-20T14:12:17.659Z,99.90
2023-04-20T14:14:44.375Z,99.90
2023-04-20T14:17:11.627Z,99.90
2023-04-20T14:19:38.417Z,99.90
2023-04-20T14:22:05.184Z,99.90
2023-04-20T14:24:32.055Z,99.90
2023-04-20T14:26:59.362Z,99.90
2023-04-20T14:29:26.143Z,99.90
2023-04-20T14:31:53.092Z,99.90
2023-04-20T14:34:20.170Z,99.90
2023-04-20T14:36:47.025Z,99.90
2023-04-20T14:39:13.725Z,99.90
2023-04-20T14:41:40.383Z,99.90
2023-04-20T14:44:07.080Z,99.90
2023-04-20T14:46:33.931Z,99.90
2023-04-20T14:49:00.772Z,99.90
2023-04-20T14:51:28.084Z,99.90
2023-04-20T14:53:56.896Z,99.90
2023-04-20T14:56:23.697Z,99.90
2023-04-20T14:58:50.500Z,99.90
2023-04-20T15:01:17.244Z,99.90
2023-04-20T15:03:44.399Z,99.90
2023-04-20T15:06:11.625Z,99.90
2023-04-20T15:08:38.384Z,99.90
2023-04-20T15:11:05.761Z,99.90
2023-04-20T15:13:32.751Z,99.90
2023-04-20T15:15:59.784Z,99.90
2023-04-20T15:18:26.634Z,99.90
2023-04-20T15:20:53.504Z,99.90
2023-04-20T15:23:20.256Z,99.90
2023-04-20T15:25:47.006Z,99.90
2023-04-20T15:28:14.172Z,99.90
2023-04-20T15:30:41.786Z,99.90
2023-04-20T15:33:08.742Z,99.90
2023-04-20T15:35:35.462Z,99.90
2023-04-20T15:38:02.774Z,99.90
2023-04-20T15:40:29.578Z,99.90
2023-04-20T15:42:56.287Z,99.90
2023-04-20T15:45:23.428Z,99.90
2023-04-20T15:47:51.162Z,99.90
2023-04-20T15:50:18.173Z,99.90
2023-04-20T15:52:45.632Z,99.90
2023-04-20T15:55:12.460Z,99.90
2023-04-20T15:57:39.266Z,99.90
2023-04-20T16:00:07.773Z,99.90
2023-04-20T16:02:34.871Z,99.90
2023-04-20T16:05:02.564Z,99.90
2023-04-20T16:07:29.344Z,99.90
2023-04-20T16:09:57.300Z,99.90
2023-04-20T16:12:24.078Z,99.90
2023-04-20T16:14:52.436Z,99.90
2023-04-20T16:17:20.454Z,99.90
2023-04-20T16:19:47.242Z,99.90
2023-04-20T16:22:14.175Z,99.90
2023-04-20T16:24:40.921Z,99.90
2023-04-20T16:27:07.663Z,99.90
2023-04-20T16:29:34.490Z,99.90
2023-04-20T16:32:01.191Z,99.90
2023-04-20T16:34:27.996Z,99.90
2023-04-20T16:36:54.711Z,99.90
2023-04-20T16:39:21.461Z,99.90
2023-04-20T16:41:48.241Z,99.90
2023-04-20T16:44:16.324Z,99.90
2023-04-20T16:46:44.092Z,99.90
2023-04-20T16:49:11.035Z,99.90
2023-04-20T16:51:37.990Z,99.90
2023-04-20T16:54:05.252Z,99.90
2023-04-20T16:56:31.909Z,99.90
2023-04-20T16:58:58.739Z,99.90
2023-04-20T17:01:25.705Z,99.90
2023-04-20T17:03:52.974Z,99.90
2023-04-20T17:06:19.813Z,99.90
2023-04-20T17:08:47.333Z,99.90
2023-04-20T17:11:14.159Z,99.90
2023-04-20T17:13:40.862Z,99.90
2023-04-20T17:16:07.702Z,99.90
2023-04-20T17:18:35.227Z,99.90
2023-04-20T17:21:02.280Z,99.90
2023-04-20T17:23:29.618Z,99.90
2023-04-20T17:25:57.573Z,99.90
2023-04-20T17:28:24.398Z,99.90
2023-04-20T17:30:51.229Z,99.90
2023-04-20T17:33:18.085Z,99.90
2023-04-20T17:35:46.413Z,99.90
2023-04-20T17:38:14.037Z,99.90
2023-04-20T17:40:41.081Z,99.90
2023-04-20T17:43:07.835Z,99.90
2023-04-20T17:45:36.754Z,99.90
2023-04-20T17:48:03.759Z,99.90
2023-04-20T17:50:30.582Z,99.90
2023-04-20T17:52:57.413Z,99.90
2023-04-20T17:55:24.192Z,99.90
2023-04-20T17:57:50.971Z,99.90
2023-04-20T18:00:18.675Z,99.90
2023-04-20T18:02:45.693Z,99.90
2023-04-20T18:05:12.700Z,99.90
2023-04-20T18:07:42.573Z,99.90
2023-04-20T18:10:09.908Z,99.90
2023-04-20T18:12:36.658Z,99.90
2023-04-20T18:15:05.014Z,99.90
2023-04-20T18:17:33.872Z,99.90
2023-04-20T18:20:01.193Z,99.90
2023-04-20T18:22:28.008Z,99.90
2023-04-20T18:24:54.758Z,99.90
2023-04-20T18:27:21.416Z,99.90
2023-04-20T18:29:49.562Z,99.90
2023-04-20T18:32:16.356Z,99.90
2023-04-20T18:34:43.214Z,99.90
2023-04-20T18:37:14.089Z,99.90
2023-04-20T18:39:41.608Z,99.90
2023-04-20T18:42:08.642Z,99.90
2023-04-20T18:44:37.610Z,99.90
2023-04-20T18:47:04.521Z,99.90
2023-04-20T18:49:37.379Z,99.90
2023-04-20T18:52:04.368Z,99.90
2023-04-20T18:54:31.265Z,99.90
2023-04-20T18:56:58.308Z,99.90
2023-04-20T18:59:25.111Z,99.90
2023-04-20T19:01:52.362Z,99.90
2023-04-20T19:04:19.641Z,99.90
2023-04-20T19:06:46.728Z,99.90
2023-04-20T19:09:13.609Z,99.90
2023-04-20T19:11:40.336Z,99.90
2023-04-20T19:14:07.110Z,99.90
2023-04-20T19:16:34.353Z,99.90
2023-04-20T19:19:01.758Z,99.90
2023-04-20T19:21:28.457Z,99.90
2023-04-20T19:23:56.214Z,99.90
2023-04-20T19:26:24.141Z,99.90
2023-04-20T19:28:51.086Z,99.90
2023-04-20T19:31:17.821Z,99.90
2023-04-20T19:33:44.497Z,99.90
2023-04-20T19:36:11.384Z,99.90
2023-04-20T19:38:38.722Z,99.90
2023-04-20T19:41:06.273Z,99.90
2023-04-20T19:43:33.165Z,99.90
2023-04-20T19:46:00.109Z,99.90
2023-04-20T19:48:27.115Z,99.90
2023-04-20T19:50:56.635Z,99.90
2023-04-20T19:53:25.131Z,99.90
2023-04-20T19:55:51.990Z,99.90
2023-04-20T19:58:19.061Z,99.90
2023-04-20T20:00:47.336Z,99.90
2023-04-20T20:03:17.254Z,99.90
2023-04-20T20:05:44.871Z,99.90
2023-04-20T20:08:11.753Z,99.90
2023-04-20T20:10:38.610Z,99.90
2023-04-20T20:13:05.846Z,99.90
2023-04-20T20:15:32.762Z,99.90
2023-04-20T20:17:59.699Z,99.90
2023-04-20T20:20:33.052Z,99.90
2023-04-20T20:23:00.399Z,99.90
2023-04-20T20:25:29.343Z,99.90
2023-04-20T20:27:56.092Z,99.90
2023-04-20T20:30:22.989Z,99.90
2023-04-20T20:32:52.940Z,99.90
2023-04-20T20:35:19.677Z,99.90
2023-04-20T20:37:48.717Z,99.90
2023-04-20T20:40:15.603Z,99.90
2023-04-20T20:42:45.024Z,99.90
2023-04-20T20:45:12.803Z,99.90
2023-04-20T20:47:44.143Z,99.90
2023-04-20T20:50:12.888Z,99.90
2023-04-20T20:52:39.745Z,99.90
2023-04-20T20:55:07.921Z,99.90
2023-04-20T20:57:35.458Z,99.90
2023-04-20T21:00:02.309Z,99.90
2023-04-20T21:02:29.068Z,99.90
2023-04-20T21:04:55.861Z,99.90
2023-04-20T21:07:25.625Z,99.90
2023-04-20T21:09:52.320Z,99.90
2023-04-20T21:12:19.235Z,99.90
2023-04-20T21:14:46.024Z,99.90
2023-04-20T21:17:12.691Z,99.90
2023-04-20T21:19:39.355Z,99.90
2023-04-20T21:22:07.769Z,99.90
2023-04-20T21:24:35.632Z,99.90
2023-04-20T21:27:05.064Z,99.90
2023-04-20T21:29:33.133Z,99.90
2023-04-20T21:31:59.879Z,99.90
2023-04-20T21:34:27.330Z,99.90
2023-04-20T21:36:53.979Z,99.90
2023-04-20T21:39:20.815Z,99.90
2023-04-20T21:41:47.764Z,99.90
2023-04-20T21:44:14.393Z,99.90
2023-04-20T21:46:42.527Z,99.90
2023-04-20T21:49:12.056Z,99.90
2023-04-20T21:51:39.069Z,99.90
2023-04-20T21:54:06.179Z,99.90
2023-04-20T21:56:32.842Z,99.90
2023-04-20T21:58:59.492Z,99.90
2023-04-20T22:01:29.260Z,99.90
2023-04-20T22:03:56.358Z,99.90
2023-04-20T22:06:23.181Z,99.90
2023-04-20T22:08:49.830Z,99.90
2023-04-20T22:11:16.789Z,99.90
2023-04-20T22:13:44.503Z,99.90
2023-04-20T22:16:11.183Z,99.90
2023-04-20T22:18:37.911Z,99.90
2023-04-20T22:21:04.690Z,99.90
2023-04-20T22:23:31.658Z,99.90
2023-04-20T22:26:01.074Z,99.90
2023-04-20T22:28:27.847Z,99.90
2023-04-20T22:30:54.604Z,99.90
2023-04-20T22:33:21.329Z,99.90
2023-04-20T22:35:47.949Z,99.90
2023-04-20T22:38:14.576Z,99.90
2023-04-20T22:40:41.203Z,99.90
2023-04-20T22:43:07.901Z,99.90
2023-04-20T22:45:34.592Z,99.90
2023-04-20T22:48:01.589Z,99.90
2023-04-20T22:50:28.231Z,99.90
2023-04-20T22:52:54.863Z,99.90
2023-04-20T22:55:21.637Z,99.90
2023-04-20T22:57:48.293Z,99.90
2023-04-20T23:00:15.422Z,99.90
2023-04-20T23:02:42.295Z,99.90
2023-04-20T23:05:12.306Z,99.90
2023-04-20T23:07:39.540Z,99.90
2023-04-20T23:10:07.101Z,99.90
2023-04-20T23:12:33.857Z,99.90
2023-04-20T23:15:01.279Z,99.90
2023-04-20T23:17:29.003Z,99.90
2023-04-20T23:19:56.503Z,99.90
2023-04-20T23:22:23.553Z,99.90
2023-04-20T23:24:50.697Z,99.90
2023-04-20T23:27:17.492Z,99.90
2023-04-20T23:29:44.315Z,99.90
2023-04-20T23:32:11.111Z,99.90
2023-04-20T23:34:37.877Z,99.90
2023-04-20T23:37:04.595Z,99.90
2023-04-20T23:39:31.263Z,99.90
2023-04-20T23:41:57.977Z,99.90
2023-04-20T23:44:24.757Z,99.90
2023-04-20T23:46:51.437Z,99.90
2023-04-20T23:49:18.451Z,99.90
2023-04-20T23:51:45.420Z,99.90
2023-04-20T23:54:12.093Z,99.90
2023-04-20T23:56:38.749Z,99.90
2023-04-20T23:59:05.443Z,99.90
